Saga Journey — VRCY8 — position and weather

sailwx.info

Track history (hours):
 
Tides and Currents Weather Stations Pressure Air Temp Water Temp Dewpoint Dewpoint Depression Visibility Wind Speed Wind Dir Waves Ship Positions

Saga Journey

Last reported at 2018-Jan-20 03:40 UTC. Time now 2018-Jan-20 08:56 UTC.
Position S 24°03' W 046°22'.

Length 199 m; draft 8.5 m.

Type: Cargo ship. MMSI: 477883200.

Date/timePositionNaut miles runAvg speedWind from/ knotsBaromVisibWave heightAir tempDewpointWater temp
2018-Jan-20 03:40S 24°03' W 046°22'311.4
2018-Jan-20 03:26S 24°01' W 046°21'3 7.3
2018-Jan-20 03:00S 23°59' W 046°18'2 3.3
2018-Jan-20 02:30S 23°58' W 046°18'0 0.0
2018-Jan-20 01:55S 23°58' W 046°18'0 0.0
2018-Jan-20 01:30S 23°58' W 046°18'0 0.0
2018-Jan-20 01:00S 23°58' W 046°18'0 0.0
2018-Jan-20 00:30S 23°58' W 046°18'0 0.0
2018-Jan-20 00:00S 23°58' W 046°18'0 0.0
2018-Jan-19 23:30S 23°58' W 046°18'0 0.0
2018-Jan-19 22:57S 23°58' W 046°18'0 0.0
2018-Jan-19 22:27S 23°58' W 046°18'0 0.0
2018-Jan-19 21:54S 23°58' W 046°18'0 0.0
2018-Jan-19 21:21S 23°58' W 046°18'0 0.0
2018-Jan-19 21:00S 23°58' W 046°18'0 0.0
2018-Jan-19 20:30S 23°58' W 046°18'0 0.0
2018-Jan-19 20:00S 23°58' W 046°18'0 0.0
2018-Jan-19 19:30S 23°58' W 046°18'0 0.0
2018-Jan-19 19:00S 23°58' W 046°18'0 0.0
2018-Jan-19 18:27S 23°58' W 046°18'0 0.0
2018-Jan-19 18:00S 23°58' W 046°18'0 0.0
2018-Jan-19 17:24S 23°58' W 046°18'0 0.0
2018-Jan-19 16:57S 23°58' W 046°18'0 0.0
2018-Jan-19 16:21S 23°58' W 046°18'0 0.0
2018-Jan-19 15:57S 23°58' W 046°18'0 0.0
2018-Jan-19 15:27S 23°58' W 046°18'0 0.0
2018-Jan-19 14:57S 23°58' W 046°18'0 0.0
2018-Jan-19 14:27S 23°58' W 046°18'0 0.0
2018-Jan-19 13:48S 23°58' W 046°18'0 0.0
2018-Jan-19 13:24S 23°58' W 046°18'0 0.0
2018-Jan-19 12:54S 23°58' W 046°18'0 0.0
2018-Jan-19 12:30S 23°58' W 046°18'0 0.0
2018-Jan-19 12:00S 23°58' W 046°18'0 0.0
2018-Jan-19 11:15S 23°58' W 046°18'0 0.0
2018-Jan-19 11:00S 23°58' W 046°18'0 0.0
2018-Jan-19 10:30S 23°58' W 046°18'0 0.0
2018-Jan-19 09:57S 23°58' W 046°18'0 0.0
2018-Jan-19 09:30S 23°58' W 046°18'1 0.1
2018-Jan-19 03:27S 23°58' W 046°17'4 7.4
2018-Jan-19 02:57S 24°01' W 046°20'  
2018-Jan-12 14:57S 24°04' W 046°20'0 0.0
2018-Jan-12 14:30S 24°04' W 046°20'0 0.0
2018-Jan-12 13:57S 24°04' W 046°20'0 0.0
2018-Jan-12 13:30S 24°04' W 046°20'0 0.1
2018-Jan-12 12:57S 24°04' W 046°20'0 0.0
2018-Jan-12 12:21S 24°04' W 046°20'0 0.0
2018-Jan-12 11:57S 24°04' W 046°20'0 0.0
2018-Jan-12 11:27S 24°04' W 046°20'0 0.1
2018-Jan-12 11:00S 24°04' W 046°20'0 0.0
2018-Jan-12 10:30S 24°04' W 046°20'0 0.0
2018-Jan-12 10:00S 24°04' W 046°20'0 0.0
2018-Jan-12 09:30S 24°04' W 046°20'0 0.1
2018-Jan-12 08:57S 24°04' W 046°20'0 0.2
2018-Jan-12 08:30S 24°04' W 046°20'0 0.1
2018-Jan-12 08:00S 24°04' W 046°20'0 0.0
2018-Jan-12 07:30S 24°04' W 046°20'0 0.0
2018-Jan-12 07:00S 24°04' W 046°20'0 0.1
2018-Jan-12 06:30S 24°04' W 046°20'0 0.0
2018-Jan-12 06:00S 24°04' W 046°20'0 0.1
2018-Jan-12 05:30S 24°04' W 046°20'0 0.1
2018-Jan-12 05:00S 24°05' W 046°20'0 0.0
2018-Jan-12 04:27S 24°05' W 046°20'0 0.0
2018-Jan-12 03:57S 24°05' W 046°20'0 0.0
2018-Jan-12 03:30S 24°05' W 046°20'0 0.1
2018-Jan-12 02:45S 24°05' W 046°20'0 0.1
2018-Jan-12 02:27S 24°04' W 046°20'0 0.1
2018-Jan-12 02:00S 24°04' W 046°20'0 0.0
2018-Jan-12 01:30S 24°04' W 046°20'0 0.0
2018-Jan-12 01:00S 24°04' W 046°20'0 0.0
2018-Jan-12 00:30S 24°04' W 046°20'0 0.0
2018-Jan-12 00:00S 24°04' W 046°20'0 0.5
2018-Jan-11 23:30S 24°04' W 046°20'2 4.4
2018-Jan-11 23:00S 24°02' W 046°21'4 7.7
2018-Jan-11 22:30S 23°59' W 046°18'2 4.8
2018-Jan-11 22:00S 23°57' W 046°19'0 0.0
2018-Jan-11 21:29S 23°57' W 046°19'0 0.0
2018-Jan-11 20:49S 23°57' W 046°19'0 0.0
2018-Jan-11 20:30S 23°57' W 046°19'0 0.0
2018-Jan-11 20:00S 23°57' W 046°19'0 0.0
2018-Jan-11 19:30S 23°57' W 046°19'0 0.0
2018-Jan-11 18:32S 23°57' W 046°19'0 0.0
2018-Jan-11 18:28S 23°57' W 046°19'0 0.0
2018-Jan-11 18:00S 23°57' W 046°19'0 0.0
2018-Jan-11 16:34S 23°57' W 046°19'0 0.0
2018-Jan-11 13:40S 23°57' W 046°19'0 0.0
2018-Jan-11 13:29S 23°57' W 046°19'0 0.0
2018-Jan-11 12:52S 23°57' W 046°19'0 0.0
2018-Jan-11 12:10S 23°57' W 046°19'0 0.0
2018-Jan-11 09:54S 23°57' W 046°19'0 0.0
2018-Jan-11 09:30S 23°57' W 046°19'0 0.0
2018-Jan-11 08:50S 23°57' W 046°19'0 0.0
2018-Jan-11 07:59S 23°57' W 046°19'0 0.0
2018-Jan-11 07:25S 23°57' W 046°19'0 0.0
2018-Jan-11 06:21S 23°57' W 046°19'0 0.0
2018-Jan-11 00:41S 23°57' W 046°19'0 0.0
2018-Jan-11 00:17S 23°57' W 046°19'0 0.0
2018-Jan-10 23:57S 23°57' W 046°19'0 0.0
2018-Jan-10 23:25S 23°57' W 046°19'0 0.0
2018-Jan-10 21:55S 23°57' W 046°19'0 0.0
2018-Jan-10 21:30S 23°57' W 046°19'0 0.0
2018-Jan-10 21:00S 23°57' W 046°19'0 0.0
2018-Jan-10 20:30S 23°57' W 046°19'0 0.0
2018-Jan-10 20:00S 23°57' W 046°19'0 0.8
2018-Jan-10 19:31S 23°57' W 046°19'  
Track history (hours):
 
Tides and Currents Weather Stations Pressure Air Temp Water Temp Dewpoint Dewpoint Depression Visibility Wind Speed Wind Dir Waves Ship Positions

Saga Journey

Last reported at 2018-Jan-20 03:40 UTC. Time now 2018-Jan-20 08:56 UTC.
Position S 24°03' W 046°22'.

Length 199 m; draft 8.5 m.

Type: Cargo ship. MMSI: 477883200.

Date/timePositionNaut miles runAvg speedWind from/ knotsBaromVisibWave heightAir tempDewpointWater temp
2018-Jan-20 03:40S 24°03' W 046°22'311.4
2018-Jan-20 03:26S 24°01' W 046°21'3 7.3
2018-Jan-20 03:00S 23°59' W 046°18'2 3.3
2018-Jan-20 02:30S 23°58' W 046°18'0 0.0
2018-Jan-20 01:55S 23°58' W 046°18'0 0.0
2018-Jan-20 01:30S 23°58' W 046°18'0 0.0
2018-Jan-20 01:00S 23°58' W 046°18'0 0.0
2018-Jan-20 00:30S 23°58' W 046°18'0 0.0
2018-Jan-20 00:00S 23°58' W 046°18'0 0.0
2018-Jan-19 23:30S 23°58' W 046°18'0 0.0
2018-Jan-19 22:57S 23°58' W 046°18'0 0.0
2018-Jan-19 22:27S 23°58' W 046°18'0 0.0
2018-Jan-19 21:54S 23°58' W 046°18'0 0.0
2018-Jan-19 21:21S 23°58' W 046°18'0 0.0
2018-Jan-19 21:00S 23°58' W 046°18'0 0.0
2018-Jan-19 20:30S 23°58' W 046°18'0 0.0
2018-Jan-19 20:00S 23°58' W 046°18'0 0.0
2018-Jan-19 19:30S 23°58' W 046°18'0 0.0
2018-Jan-19 19:00S 23°58' W 046°18'0 0.0
2018-Jan-19 18:27S 23°58' W 046°18'0 0.0
2018-Jan-19 18:00S 23°58' W 046°18'0 0.0
2018-Jan-19 17:24S 23°58' W 046°18'0 0.0
2018-Jan-19 16:57S 23°58' W 046°18'0 0.0
2018-Jan-19 16:21S 23°58' W 046°18'0 0.0
2018-Jan-19 15:57S 23°58' W 046°18'0 0.0
2018-Jan-19 15:27S 23°58' W 046°18'0 0.0
2018-Jan-19 14:57S 23°58' W 046°18'0 0.0
2018-Jan-19 14:27S 23°58' W 046°18'0 0.0
2018-Jan-19 13:48S 23°58' W 046°18'0 0.0
2018-Jan-19 13:24S 23°58' W 046°18'0 0.0
2018-Jan-19 12:54S 23°58' W 046°18'0 0.0
2018-Jan-19 12:30S 23°58' W 046°18'0 0.0
2018-Jan-19 12:00S 23°58' W 046°18'0 0.0
2018-Jan-19 11:15S 23°58' W 046°18'0 0.0
2018-Jan-19 11:00S 23°58' W 046°18'0 0.0
2018-Jan-19 10:30S 23°58' W 046°18'0 0.0
2018-Jan-19 09:57S 23°58' W 046°18'0 0.0
2018-Jan-19 09:30S 23°58' W 046°18'1 0.1
2018-Jan-19 03:27S 23°58' W 046°17'4 7.4
2018-Jan-19 02:57S 24°01' W 046°20'  
2018-Jan-12 14:57S 24°04' W 046°20'0 0.0
2018-Jan-12 14:30S 24°04' W 046°20'0 0.0
2018-Jan-12 13:57S 24°04' W 046°20'0 0.0
2018-Jan-12 13:30S 24°04' W 046°20'0 0.1
2018-Jan-12 12:57S 24°04' W 046°20'0 0.0
2018-Jan-12 12:21S 24°04' W 046°20'0 0.0
2018-Jan-12 11:57S 24°04' W 046°20'0 0.0
2018-Jan-12 11:27S 24°04' W 046°20'0 0.1
2018-Jan-12 11:00S 24°04' W 046°20'0 0.0
2018-Jan-12 10:30S 24°04' W 046°20'0 0.0
2018-Jan-12 10:00S 24°04' W 046°20'0 0.0
2018-Jan-12 09:30S 24°04' W 046°20'0 0.1
2018-Jan-12 08:57S 24°04' W 046°20'0 0.2
2018-Jan-12 08:30S 24°04' W 046°20'0 0.1
2018-Jan-12 08:00S 24°04' W 046°20'0 0.0
2018-Jan-12 07:30S 24°04' W 046°20'0 0.0
2018-Jan-12 07:00S 24°04' W 046°20'0 0.1
2018-Jan-12 06:30S 24°04' W 046°20'0 0.0
2018-Jan-12 06:00S 24°04' W 046°20'0 0.1
2018-Jan-12 05:30S 24°04' W 046°20'0 0.1
2018-Jan-12 05:00S 24°05' W 046°20'0 0.0
2018-Jan-12 04:27S 24°05' W 046°20'0 0.0
2018-Jan-12 03:57S 24°05' W 046°20'0 0.0
2018-Jan-12 03:30S 24°05' W 046°20'0 0.1
2018-Jan-12 02:45S 24°05' W 046°20'0 0.1
2018-Jan-12 02:27S 24°04' W 046°20'0 0.1
2018-Jan-12 02:00S 24°04' W 046°20'0 0.0
2018-Jan-12 01:30S 24°04' W 046°20'0 0.0
2018-Jan-12 01:00S 24°04' W 046°20'0 0.0
2018-Jan-12 00:30S 24°04' W 046°20'0 0.0
2018-Jan-12 00:00S 24°04' W 046°20'0 0.5
2018-Jan-11 23:30S 24°04' W 046°20'2 4.4
2018-Jan-11 23:00S 24°02' W 046°21'4 7.7
2018-Jan-11 22:30S 23°59' W 046°18'2 4.8
2018-Jan-11 22:00S 23°57' W 046°19'0 0.0
2018-Jan-11 21:29S 23°57' W 046°19'0 0.0
2018-Jan-11 20:49S 23°57' W 046°19'0 0.0
2018-Jan-11 20:30S 23°57' W 046°19'0 0.0
2018-Jan-11 20:00S 23°57' W 046°19'0 0.0
2018-Jan-11 19:30S 23°57' W 046°19'0 0.0
2018-Jan-11 18:32S 23°57' W 046°19'0 0.0
2018-Jan-11 18:28S 23°57' W 046°19'0 0.0
2018-Jan-11 18:00S 23°57' W 046°19'0 0.0
2018-Jan-11 16:34S 23°57' W 046°19'0 0.0
2018-Jan-11 13:40S 23°57' W 046°19'0 0.0
2018-Jan-11 13:29S 23°57' W 046°19'0 0.0
2018-Jan-11 12:52S 23°57' W 046°19'0 0.0
2018-Jan-11 12:10S 23°57' W 046°19'0 0.0
2018-Jan-11 09:54S 23°57' W 046°19'0 0.0
2018-Jan-11 09:30S 23°57' W 046°19'0 0.0
2018-Jan-11 08:50S 23°57' W 046°19'0 0.0
2018-Jan-11 07:59S 23°57' W 046°19'0 0.0
2018-Jan-11 07:25S 23°57' W 046°19'0 0.0
2018-Jan-11 06:21S 23°57' W 046°19'0 0.0
2018-Jan-11 00:41S 23°57' W 046°19'0 0.0
2018-Jan-11 00:17S 23°57' W 046°19'0 0.0
2018-Jan-10 23:57S 23°57' W 046°19'0 0.0
2018-Jan-10 23:25S 23°57' W 046°19'0 0.0
2018-Jan-10 21:55S 23°57' W 046°19'0 0.0
2018-Jan-10 21:30S 23°57' W 046°19'0 0.0
2018-Jan-10 21:00S 23°57' W 046°19'0 0.0
2018-Jan-10 20:30S 23°57' W 046°19'0 0.0
2018-Jan-10 20:00S 23°57' W 046°19'0 0.8
2018-Jan-10 19:31S 23°57' W 046°19'  

Dump ship's entire track history